Time;durP1;ratioP1;P1;durP2;ratioP2;P2;SDS_P1;SDS_P2;PMS_P1;PMS_P2;Temp;Humidity;BMP_temperature;BMP_pressure;BME280_temperature;BME280_humidity;BME280_pressure;Samples;Min_cycle;Max_cycle;Signal;HPM_P1;HPM_P2
2022/01/13 00:01:22;;;;;;;10.48;3.92;;;;;;;;;;4954659;28;20465;-67
2022/01/13 00:03:50;;;;;;;9.20;3.40;;;;;;;;;;4956053;28;20054;-69
2022/01/13 00:06:16;;;;;;;10.25;3.53;;;;;;;;;;4952185;28;20156;-66
2022/01/13 00:08:43;;;;;;;10.73;4.43;;;;;;;;;;4960123;28;20113;-65
2022/01/13 00:11:09;;;;;;;8.85;3.08;;;;;;;;;;4946299;28;20048;-69
2022/01/13 00:19:04;;;;;;;12.85;3.22;;;;;;;;;;4926643;29;20047;-66
2022/01/13 00:21:36;;;;;;;7.35;2.58;;;;;;;;;;4933408;29;20105;-70
2022/01/13 00:24:05;;;;;;;11.93;3.05;;;;;;;;;;4934696;29;20110;-70
2022/01/13 00:26:34;;;;;;;7.95;2.33;;;;;;;;;;5000356;28;20129;-69
2022/01/13 00:29:03;;;;;;;11.00;2.72;;;;;;;;;;4987152;28;20096;-71
2022/01/13 00:31:34;;;;;;;10.63;2.60;;;;;;;;;;5004283;28;20085;-66
2022/01/13 00:34:04;;;;;;;11.82;3.28;;;;;;;;;;4988831;28;20080;-70
2022/01/13 00:36:33;;;;;;;8.07;2.28;;;;;;;;;;4986072;28;20057;-72
2022/01/13 00:39:00;;;;;;;5.70;2.25;;;;;;;;;;4985483;28;20443;-65
2022/01/13 00:41:29;;;;;;;11.65;2.83;;;;;;;;;;5004482;28;20108;-66
2022/01/13 00:43:59;;;;;;;10.93;2.78;;;;;;;;;;5000851;28;20061;-66
2022/01/13 00:46:30;;;;;;;11.65;2.60;;;;;;;;;;4970305;28;20046;-75
2022/01/13 00:48:58;;;;;;;11.68;3.30;;;;;;;;;;5005258;28;20060;-70
2022/01/13 00:51:25;;;;;;;8.70;2.60;;;;;;;;;;5009675;28;20058;-65
2022/01/13 00:53:52;;;;;;;8.88;2.63;;;;;;;;;;5041832;28;20224;-69
2022/01/13 00:56:18;;;;;;;6.97;2.40;;;;;;;;;;5066139;28;20056;-72
2022/01/13 00:58:45;;;;;;;5.53;2.28;;;;;;;;;;5050406;28;20590;-76
2022/01/13 01:01:11;;;;;;;7.28;2.20;;;;;;;;;;5067454;28;20052;-71
2022/01/13 01:03:38;;;;;;;11.18;2.20;;;;;;;;;;5066924;28;20499;-68
2022/01/13 01:06:05;;;;;;;4.60;1.85;;;;;;;;;;5068814;28;20048;-72
2022/01/13 01:08:33;;;;;;;7.28;2.20;;;;;;;;;;5067341;28;20110;-72
2022/01/13 01:11:01;;;;;;;6.10;2.05;;;;;;;;;;5051742;28;20056;-78
2022/01/13 01:13:30;;;;;;;5.22;1.80;;;;;;;;;;5068122;28;20052;-67
2022/01/13 01:16:00;;;;;;;6.15;2.50;;;;;;;;;;5067631;28;20048;-74
2022/01/13 01:21:31;;;;;;;9.43;2.60;;;;;;;;;;5068579;28;20509;-76
2022/01/13 01:31:46;;;;;;;7.13;1.75;;;;;;;;;;5066544;28;20473;-77
2022/01/13 01:36:39;;;;;;;5.55;2.38;;;;;;;;;;5066158;28;20068;-65
2022/01/13 01:39:07;;;;;;;6.30;2.10;;;;;;;;;;5067214;28;20401;-65
2022/01/13 01:41:43;;;;;;;5.22;2.42;;;;;;;;;;5065833;28;20147;-76
2022/01/13 01:44:15;;;;;;;6.85;1.85;;;;;;;;;;5063183;28;20048;-71
2022/01/13 01:46:45;;;;;;;7.97;2.55;;;;;;;;;;5067087;28;20044;-70
2022/01/13 01:49:19;;;;;;;8.30;2.80;;;;;;;;;;5066088;28;20047;-80
2022/01/13 01:51:49;;;;;;;10.63;3.42;;;;;;;;;;5065226;28;20131;-72
2022/01/13 01:54:15;;;;;;;11.02;3.80;;;;;;;;;;5061435;28;20044;-75
2022/01/13 01:56:46;;;;;;;12.82;4.00;;;;;;;;;;5068494;28;20084;-74
2022/01/13 01:59:16;;;;;;;10.05;4.00;;;;;;;;;;5058429;28;20080;-79
2022/01/13 02:01:44;;;;;;;8.38;3.10;;;;;;;;;;5056185;28;20048;-68
2022/01/13 02:04:11;;;;;;;8.85;3.72;;;;;;;;;;5054521;28;20160;-75
2022/01/13 02:06:38;;;;;;;12.60;4.20;;;;;;;;;;5056900;28;20044;-77
2022/01/13 02:09:08;;;;;;;8.38;3.92;;;;;;;;;;5057470;28;20148;-78
2022/01/13 02:11:42;;;;;;;9.10;3.55;;;;;;;;;;5041243;28;20402;-70
2022/01/13 02:14:30;;;;;;;10.20;3.50;;;;;;;;;;5054465;28;20052;-81
2022/01/13 02:17:12;;;;;;;11.27;3.58;;;;;;;;;;5054743;28;20083;-65
2022/01/13 02:19:42;;;;;;;8.48;3.60;;;;;;;;;;5055994;28;20123;-76
2022/01/13 02:22:08;;;;;;;10.68;3.47;;;;;;;;;;5056024;28;20553;-75
2022/01/13 02:24:35;;;;;;;11.40;3.50;;;;;;;;;;5054190;28;20067;-84
2022/01/13 02:27:04;;;;;;;10.52;3.80;;;;;;;;;;5054189;28;20471;-77
2022/01/13 02:29:31;;;;;;;9.00;3.67;;;;;;;;;;5051499;28;20045;-78
2022/01/13 02:31:57;;;;;;;7.97;3.20;;;;;;;;;;5054154;28;20896;-74
2022/01/13 02:34:23;;;;;;;7.68;3.40;;;;;;;;;;5051647;28;20063;-72
2022/01/13 02:36:54;;;;;;;11.45;3.20;;;;;;;;;;5054689;28;20131;-75
2022/01/13 02:39:21;;;;;;;6.25;2.83;;;;;;;;;;5053911;28;20048;-66
2022/01/13 02:41:47;;;;;;;9.30;3.30;;;;;;;;;;5052466;28;20044;-72
2022/01/13 02:44:17;;;;;;;8.50;3.67;;;;;;;;;;5053863;28;20136;-80
2022/01/13 02:49:15;;;;;;;7.32;3.35;;;;;;;;;;5053454;28;20102;-75
2022/01/13 02:51:43;;;;;;;6.10;2.70;;;;;;;;;;5052696;28;20106;-81
2022/01/13 02:54:10;;;;;;;8.93;3.08;;;;;;;;;;5052735;28;20076;-74
2022/01/13 02:56:38;;;;;;;8.32;3.35;;;;;;;;;;5054162;28;21217;-68
2022/01/13 02:59:06;;;;;;;8.18;3.17;;;;;;;;;;5053342;28;20178;-69
2022/01/13 03:01:35;;;;;;;9.20;3.20;;;;;;;;;;5050006;28;20090;-75
2022/01/13 03:04:06;;;;;;;11.57;2.97;;;;;;;;;;5051353;28;20928;-70
2022/01/13 03:06:39;;;;;;;7.45;2.92;;;;;;;;;;5053757;28;20056;-81
2022/01/13 03:09:09;;;;;;;7.97;3.05;;;;;;;;;;5052855;28;20142;-72
2022/01/13 03:11:37;;;;;;;7.85;3.17;;;;;;;;;;5055000;28;20061;-71
2022/01/13 03:14:10;;;;;;;7.13;2.80;;;;;;;;;;5051860;28;20510;-73
2022/01/13 03:16:37;;;;;;;7.30;2.70;;;;;;;;;;5052611;28;20080;-77
2022/01/13 03:19:03;;;;;;;10.63;2.90;;;;;;;;;;5051574;28;20053;-74
2022/01/13 03:21:30;;;;;;;7.88;2.97;;;;;;;;;;5054332;28;20053;-65
2022/01/13 03:23:57;;;;;;;7.65;3.17;;;;;;;;;;5052164;28;20131;-64
2022/01/13 03:26:24;;;;;;;7.43;3.28;;;;;;;;;;5051694;28;20500;-81
2022/01/13 03:28:52;;;;;;;7.28;3.05;;;;;;;;;;5053019;28;20158;-85
2022/01/13 03:31:20;;;;;;;7.13;3.05;;;;;;;;;;5052885;28;20060;-82
2022/01/13 03:33:46;;;;;;;8.35;3.30;;;;;;;;;;5033506;28;20358;-75
2022/01/13 03:36:13;;;;;;;7.18;2.70;;;;;;;;;;5051484;28;20308;-71
2022/01/13 03:38:39;;;;;;;5.38;2.90;;;;;;;;;;5050987;28;20060;-79
2022/01/13 03:41:06;;;;;;;7.43;2.88;;;;;;;;;;5051308;28;20051;-75
2022/01/13 03:43:35;;;;;;;5.72;2.78;;;;;;;;;;5049008;28;20091;-73
2022/01/13 03:46:03;;;;;;;7.78;3.10;;;;;;;;;;5049696;28;20059;-69
2022/01/13 03:48:29;;;;;;;5.25;3.05;;;;;;;;;;5052247;28;20045;-81
2022/01/13 03:50:55;;;;;;;5.25;3.00;;;;;;;;;;5052143;28;20138;-68
2022/01/13 03:53:27;;;;;;;11.13;2.88;;;;;;;;;;5050824;28;20060;-77
2022/01/13 03:56:06;;;;;;;6.85;2.90;;;;;;;;;;5056069;28;20055;-70
2022/01/13 03:58:41;;;;;;;5.38;2.78;;;;;;;;;;5051895;28;20048;-81
2022/01/13 04:01:52;;;;;;;7.03;2.88;;;;;;;;;;5053911;28;20049;-67
2022/01/13 04:04:18;;;;;;;5.68;2.95;;;;;;;;;;5051917;28;20539;-73
2022/01/13 04:06:48;;;;;;;6.20;2.88;;;;;;;;;;5054668;28;20845;-74
2022/01/13 04:09:34;;;;;;;7.85;2.97;;;;;;;;;;5055342;28;20045;-73
2022/01/13 04:12:04;;;;;;;7.45;3.50;;;;;;;;;;5019952;28;20060;-72
2022/01/13 04:14:47;;;;;;;7.82;2.53;;;;;;;;;;5037538;28;20054;-68
2022/01/13 04:17:17;;;;;;;6.05;2.53;;;;;;;;;;5053943;28;20985;-70
2022/01/13 04:19:44;;;;;;;6.65;2.50;;;;;;;;;;5053740;28;20036;-74
2022/01/13 04:22:10;;;;;;;6.15;2.50;;;;;;;;;;5056140;28;20049;-69
2022/01/13 04:24:38;;;;;;;7.13;2.55;;;;;;;;;;5057847;28;20109;-76
2022/01/13 04:27:08;;;;;;;6.88;2.50;;;;;;;;;;5055341;28;20410;-81
2022/01/13 04:29:41;;;;;;;8.45;3.20;;;;;;;;;;5055664;28;20145;-73
2022/01/13 04:32:08;;;;;;;8.70;2.90;;;;;;;;;;5058017;28;20129;-70
2022/01/13 04:34:34;;;;;;;6.18;2.67;;;;;;;;;;5056173;28;20056;-65
2022/01/13 04:37:01;;;;;;;6.40;2.63;;;;;;;;;;5055765;28;20162;-75
2022/01/13 04:39:29;;;;;;;3.33;2.40;;;;;;;;;;5055440;28;20135;-77
2022/01/13 04:41:56;;;;;;;10.05;2.65;;;;;;;;;;5040137;28;20041;-72
2022/01/13 04:44:24;;;;;;;7.13;2.88;;;;;;;;;;5052703;28;20048;-73
2022/01/13 04:46:53;;;;;;;7.80;3.00;;;;;;;;;;5035298;28;20052;-82
2022/01/13 04:49:21;;;;;;;7.15;2.65;;;;;;;;;;5052137;28;20754;-76
2022/01/13 04:51:49;;;;;;;10.50;3.25;;;;;;;;;;5052328;28;20037;-71
2022/01/13 04:54:16;;;;;;;8.45;2.92;;;;;;;;;;5051338;28;20201;-86
2022/01/13 04:59:15;;;;;;;8.07;2.90;;;;;;;;;;5053537;28;20153;-74
2022/01/13 05:01:42;;;;;;;7.53;2.97;;;;;;;;;;5054229;28;20056;-78
2022/01/13 05:04:09;;;;;;;7.90;3.30;;;;;;;;;;5053690;28;20060;-81
2022/01/13 05:06:35;;;;;;;12.30;3.67;;;;;;;;;;5052579;28;20125;-66
2022/01/13 05:09:02;;;;;;;7.18;3.08;;;;;;;;;;5053580;28;20686;-74
2022/01/13 05:11:29;;;;;;;9.90;2.72;;;;;;;;;;5054882;28;20049;-78
2022/01/13 05:13:55;;;;;;;8.40;2.88;;;;;;;;;;5052776;28;20133;-65
2022/01/13 05:16:35;;;;;;;6.05;3.08;;;;;;;;;;5052799;28;20044;-80
2022/01/13 05:21:55;;;;;;;5.80;2.50;;;;;;;;;;5053596;28;20056;-70
2022/01/13 05:24:22;;;;;;;6.40;3.05;;;;;;;;;;5032497;28;20552;-79
2022/01/13 05:26:48;;;;;;;6.82;2.80;;;;;;;;;;5053976;28;20126;-66
2022/01/13 05:29:18;;;;;;;6.65;2.78;;;;;;;;;;5053938;28;20135;-72
2022/01/13 05:31:45;;;;;;;6.57;2.83;;;;;;;;;;5032175;28;20045;-71
2022/01/13 05:34:11;;;;;;;11.23;3.35;;;;;;;;;;5059462;28;20052;-80
2022/01/13 05:36:37;;;;;;;7.07;2.92;;;;;;;;;;5055023;28;20067;-81
2022/01/13 05:39:04;;;;;;;8.48;2.85;;;;;;;;;;5055554;28;20057;-69
2022/01/13 05:41:33;;;;;;;7.40;2.80;;;;;;;;;;5055458;28;20056;-69
2022/01/13 05:44:00;;;;;;;5.63;3.30;;;;;;;;;;5063616;28;20048;-66
2022/01/13 05:46:26;;;;;;;5.65;3.22;;;;;;;;;;5053425;28;20389;-71
2022/01/13 05:48:56;;;;;;;7.95;3.05;;;;;;;;;;5054491;28;20594;-70
2022/01/13 05:51:26;;;;;;;9.57;4.50;;;;;;;;;;5052073;28;20516;-76
2022/01/13 05:53:51;;;;;;;10.32;3.40;;;;;;;;;;5052135;28;20055;-75
2022/01/13 05:56:18;;;;;;;7.88;3.25;;;;;;;;;;5055676;28;20048;-71
2022/01/13 05:58:44;;;;;;;6.50;3.70;;;;;;;;;;5055853;28;20969;-78
2022/01/13 06:01:10;;;;;;;8.23;3.47;;;;;;;;;;5054594;28;20044;-82
2022/01/13 06:03:36;;;;;;;6.53;3.42;;;;;;;;;;5053937;28;20068;-78
2022/01/13 06:06:03;;;;;;;10.23;3.72;;;;;;;;;;5059567;28;20099;-75
2022/01/13 06:08:29;;;;;;;7.28;3.83;;;;;;;;;;5057297;28;20156;-75
2022/01/13 06:10:56;;;;;;;7.20;3.28;;;;;;;;;;5056963;28;20490;-79
2022/01/13 06:13:22;;;;;;;5.30;3.15;;;;;;;;;;5052983;28;20048;-75
2022/01/13 06:15:48;;;;;;;8.30;3.47;;;;;;;;;;5057911;28;20037;-66
2022/01/13 06:18:16;;;;;;;10.82;3.72;;;;;;;;;;5063598;28;20127;-73
2022/01/13 06:20:43;;;;;;;9.40;3.70;;;;;;;;;;5063382;28;20456;-76
2022/01/13 06:23:11;;;;;;;7.38;3.22;;;;;;;;;;5060227;28;20139;-82
2022/01/13 06:25:38;;;;;;;7.15;3.33;;;;;;;;;;5061416;28;20040;-76
2022/01/13 06:28:06;;;;;;;9.88;3.40;;;;;;;;;;5061753;28;20060;-74
2022/01/13 06:30:33;;;;;;;8.30;3.50;;;;;;;;;;5060351;28;20486;-67
2022/01/13 06:32:59;;;;;;;7.05;3.53;;;;;;;;;;5043582;28;20064;-78
2022/01/13 06:35:25;;;;;;;9.00;4.00;;;;;;;;;;5059497;28;20106;-68
2022/01/13 06:37:51;;;;;;;7.95;3.53;;;;;;;;;;5061517;28;20078;-83
2022/01/13 06:40:17;;;;;;;5.50;3.00;;;;;;;;;;5060326;28;20044;-80
2022/01/13 06:42:44;;;;;;;7.95;3.75;;;;;;;;;;5060140;28;20052;-82
2022/01/13 06:45:11;;;;;;;10.50;3.90;;;;;;;;;;5060731;28;20052;-73
2022/01/13 06:47:38;;;;;;;8.30;4.25;;;;;;;;;;5057508;28;20505;-72
2022/01/13 06:50:05;;;;;;;6.22;4.35;;;;;;;;;;5057809;28;20222;-76
2022/01/13 06:52:32;;;;;;;10.30;5.40;;;;;;;;;;5062701;28;20052;-81
2022/01/13 06:54:58;;;;;;;11.02;4.90;;;;;;;;;;5061485;28;20522;-70
2022/01/13 06:57:24;;;;;;;7.82;5.10;;;;;;;;;;5063225;28;20087;-67
2022/01/13 06:59:50;;;;;;;8.43;5.03;;;;;;;;;;5058552;28;20867;-78
2022/01/13 07:02:16;;;;;;;12.93;5.38;;;;;;;;;;5059420;28;20401;-76
2022/01/13 07:04:43;;;;;;;11.48;5.00;;;;;;;;;;5042398;28;20056;-67
2022/01/13 07:07:10;;;;;;;16.77;6.90;;;;;;;;;;5042776;28;20052;-76
2022/01/13 07:09:36;;;;;;;9.90;5.65;;;;;;;;;;5057909;28;20105;-74
2022/01/13 07:12:03;;;;;;;10.43;6.68;;;;;;;;;;5057973;28;20133;-80
2022/01/13 07:14:29;;;;;;;11.25;6.10;;;;;;;;;;5052835;28;20045;-73
2022/01/13 07:16:56;;;;;;;7.38;4.75;;;;;;;;;;5056540;28;20113;-79
2022/01/13 07:19:22;;;;;;;12.25;4.43;;;;;;;;;;5062899;28;20105;-74
2022/01/13 07:21:48;;;;;;;9.20;4.65;;;;;;;;;;5052891;28;20048;-69
2022/01/13 07:24:14;;;;;;;7.40;3.72;;;;;;;;;;5035895;28;20084;-74
2022/01/13 07:26:41;;;;;;;11.50;3.65;;;;;;;;;;5058011;28;20418;-81
2022/01/13 07:29:07;;;;;;;8.65;3.38;;;;;;;;;;5060863;28;20139;-80
2022/01/13 07:31:36;;;;;;;8.30;3.60;;;;;;;;;;5054145;28;20071;-72
2022/01/13 07:34:02;;;;;;;10.93;3.80;;;;;;;;;;5048070;28;20103;-67
2022/01/13 07:36:28;;;;;;;13.75;4.13;;;;;;;;;;5048004;28;20048;-69
2022/01/13 07:38:55;;;;;;;12.35;4.10;;;;;;;;;;5048811;28;20056;-75
2022/01/13 07:41:21;;;;;;;10.02;4.40;;;;;;;;;;5047708;28;20052;-69
2022/01/13 07:43:53;;;;;;;10.63;4.63;;;;;;;;;;5043320;28;20039;-74
2022/01/13 07:46:23;;;;;;;10.45;5.38;;;;;;;;;;5045202;28;20048;-76
2022/01/13 07:48:50;;;;;;;9.43;4.60;;;;;;;;;;5045274;28;20057;-73
2022/01/13 07:51:16;;;;;;;10.95;4.18;;;;;;;;;;5046395;28;20371;-74
2022/01/13 07:53:43;;;;;;;11.75;4.10;;;;;;;;;;5046746;28;20093;-77
2022/01/13 07:56:09;;;;;;;7.38;3.97;;;;;;;;;;5046787;28;20055;-77
2022/01/13 07:58:35;;;;;;;9.45;4.45;;;;;;;;;;5045935;28;20559;-71
2022/01/13 08:01:03;;;;;;;7.80;4.05;;;;;;;;;;5045797;28;20222;-76
2022/01/13 08:03:30;;;;;;;11.32;4.75;;;;;;;;;;5043176;28;20394;-69
2022/01/13 08:05:58;;;;;;;9.13;4.60;;;;;;;;;;5044084;28;20077;-70
2022/01/13 08:08:25;;;;;;;12.32;4.28;;;;;;;;;;5047252;28;20502;-70
2022/01/13 08:10:51;;;;;;;15.40;4.95;;;;;;;;;;5044423;28;20414;-78
2022/01/13 08:13:17;;;;;;;12.70;4.85;;;;;;;;;;5043945;28;20140;-74
2022/01/13 08:15:44;;;;;;;18.10;5.50;;;;;;;;;;5028950;28;20127;-70
2022/01/13 08:21:02;;;;;;;13.77;5.03;;;;;;;;;;5016573;28;20060;-73
2022/01/13 08:23:29;;;;;;;10.68;5.53;;;;;;;;;;5042000;28;20256;-73
2022/01/13 08:25:55;;;;;;;12.27;6.38;;;;;;;;;;5045359;28;20057;-73
2022/01/13 08:28:22;;;;;;;10.60;5.78;;;;;;;;;;5046726;28;20060;-75
2022/01/13 08:30:48;;;;;;;11.95;5.30;;;;;;;;;;5042715;28;20044;-76
2022/01/13 08:33:18;;;;;;;15.27;5.63;;;;;;;;;;5044156;28;20040;-71
2022/01/13 08:35:45;;;;;;;11.35;6.20;;;;;;;;;;5049092;28;20058;-74
2022/01/13 08:38:16;;;;;;;13.40;5.20;;;;;;;;;;5046021;28;20059;-73
2022/01/13 08:40:44;;;;;;;16.23;6.07;;;;;;;;;;5043446;28;20052;-74
2022/01/13 08:43:11;;;;;;;24.90;6.65;;;;;;;;;;5042360;28;20416;-75
2022/01/13 08:45:37;;;;;;;12.27;5.68;;;;;;;;;;5044292;28;20052;-79
2022/01/13 08:48:04;;;;;;;11.60;5.53;;;;;;;;;;5045208;28;20048;-69
2022/01/13 08:50:30;;;;;;;14.65;6.72;;;;;;;;;;5045927;28;20056;-74
2022/01/13 08:52:56;;;;;;;10.13;5.95;;;;;;;;;;5044319;28;20437;-74
2022/01/13 08:55:23;;;;;;;19.15;5.97;;;;;;;;;;5043978;28;20068;-73
2022/01/13 08:57:49;;;;;;;14.10;5.50;;;;;;;;;;5045644;28;20192;-75
2022/01/13 09:00:16;;;;;;;16.38;6.20;;;;;;;;;;5048397;28;20102;-73
2022/01/13 09:02:44;;;;;;;13.02;5.07;;;;;;;;;;5042343;28;20615;-77
2022/01/13 09:05:13;;;;;;;15.40;5.88;;;;;;;;;;5046902;28;20133;-76
2022/01/13 09:07:39;;;;;;;13.68;4.95;;;;;;;;;;5046670;28;21136;-76
2022/01/13 09:10:08;;;;;;;10.75;4.90;;;;;;;;;;5051396;28;20450;-72
2022/01/13 09:12:34;;;;;;;14.02;4.88;;;;;;;;;;5031715;28;20409;-71
2022/01/13 09:15:15;;;;;;;16.27;4.65;;;;;;;;;;5048056;28;20908;-71
2022/01/13 09:17:51;;;;;;;14.20;4.22;;;;;;;;;;5052829;28;20090;-77
2022/01/13 09:20:17;;;;;;;19.55;4.95;;;;;;;;;;5034448;28;20056;-73
2022/01/13 09:22:44;;;;;;;10.43;4.55;;;;;;;;;;5048721;28;20154;-79
2022/01/13 09:25:11;;;;;;;11.05;4.75;;;;;;;;;;5051784;28;20103;-74
2022/01/13 09:27:40;;;;;;;11.43;5.00;;;;;;;;;;5035297;28;20148;-70
2022/01/13 09:30:09;;;;;;;24.90;4.40;;;;;;;;;;5053211;28;20525;-71
2022/01/13 09:32:37;;;;;;;14.27;4.40;;;;;;;;;;5051042;28;20079;-75
2022/01/13 09:35:05;;;;;;;13.25;4.47;;;;;;;;;;5051574;28;20122;-74
2022/01/13 09:37:32;;;;;;;11.77;4.25;;;;;;;;;;5050265;28;20052;-75
2022/01/13 09:39:58;;;;;;;11.75;5.03;;;;;;;;;;5049677;28;20475;-76
2022/01/13 09:42:32;;;;;;;10.60;4.13;;;;;;;;;;5050924;28;20056;-75
2022/01/13 09:45:00;;;;;;;11.32;4.32;;;;;;;;;;5047274;28;20153;-74
2022/01/13 09:47:29;;;;;;;11.10;3.80;;;;;;;;;;5052202;28;20579;-79
2022/01/13 09:49:57;;;;;;;17.35;4.20;;;;;;;;;;5051228;28;20072;-72
2022/01/13 09:52:23;;;;;;;12.43;3.90;;;;;;;;;;5049101;28;20494;-76
2022/01/13 09:54:49;;;;;;;13.70;4.80;;;;;;;;;;5049305;28;20051;-73
2022/01/13 09:57:16;;;;;;;12.93;4.50;;;;;;;;;;5033918;28;20533;-77
2022/01/13 09:59:43;;;;;;;17.23;5.22;;;;;;;;;;5051490;28;20080;-78
2022/01/13 10:02:11;;;;;;;13.20;4.00;;;;;;;;;;5052019;28;20055;-74
2022/01/13 10:04:44;;;;;;;12.80;4.20;;;;;;;;;;5049074;28;20082;-71
2022/01/13 10:07:13;;;;;;;17.70;4.28;;;;;;;;;;5051078;28;20494;-77
2022/01/13 10:09:54;;;;;;;10.18;3.67;;;;;;;;;;5049893;28;20082;-75
2022/01/13 10:12:31;;;;;;;9.98;3.55;;;;;;;;;;5048274;28;20057;-72
2022/01/13 10:17:29;;;;;;;12.07;4.15;;;;;;;;;;5051502;28;20056;-76
2022/01/13 10:19:58;;;;;;;11.65;3.38;;;;;;;;;;5048634;28;20057;-68
2022/01/13 10:22:32;;;;;;;9.27;4.10;;;;;;;;;;5049357;28;20046;-74
2022/01/13 10:24:59;;;;;;;14.30;5.05;;;;;;;;;;5050071;28;20136;-72
2022/01/13 10:27:34;;;;;;;12.20;4.30;;;;;;;;;;5049892;28;20048;-69
2022/01/13 10:30:05;;;;;;;9.15;3.60;;;;;;;;;;5049256;28;20140;-76
2022/01/13 10:32:39;;;;;;;17.63;3.85;;;;;;;;;;5047548;28;20343;-75
2022/01/13 10:35:10;;;;;;;18.48;4.53;;;;;;;;;;5033907;28;20451;-77
2022/01/13 10:38:02;;;;;;;10.45;3.67;;;;;;;;;;5048847;28;20083;-74
2022/01/13 10:40:34;;;;;;;13.48;3.30;;;;;;;;;;5040975;28;20129;-73
2022/01/13 10:45:40;;;;;;;12.70;3.15;;;;;;;;;;5048878;28;20091;-67
2022/01/13 10:48:18;;;;;;;7.38;2.75;;;;;;;;;;5065214;28;20693;-71
2022/01/13 10:50:53;;;;;;;9.65;3.35;;;;;;;;;;5034295;28;20501;-75
2022/01/13 10:53:25;;;;;;;12.25;3.50;;;;;;;;;;5045453;28;20040;-76
2022/01/13 10:55:58;;;;;;;13.93;3.60;;;;;;;;;;5050748;28;20054;-76
2022/01/13 10:58:33;;;;;;;6.50;3.53;;;;;;;;;;5053267;28;20539;-72
2022/01/13 11:01:00;;;;;;;11.43;3.22;;;;;;;;;;5050967;28;20564;-80
2022/01/13 11:03:29;;;;;;;13.23;3.42;;;;;;;;;;5048219;28;20056;-74
2022/01/13 11:06:08;;;;;;;9.73;3.15;;;;;;;;;;5052503;28;20040;-75
2022/01/13 11:08:52;;;;;;;7.93;2.72;;;;;;;;;;5052723;28;20902;-79
2022/01/13 11:11:28;;;;;;;9.85;2.97;;;;;;;;;;5056673;28;20057;-82
2022/01/13 11:13:59;;;;;;;7.13;2.70;;;;;;;;;;5053815;28;20056;-83
2022/01/13 11:16:26;;;;;;;8.43;2.50;;;;;;;;;;5053850;28;20481;-75
2022/01/13 11:18:53;;;;;;;14.57;2.80;;;;;;;;;;5054944;28;20040;-82
2022/01/13 11:21:20;;;;;;;7.10;2.20;;;;;;;;;;5055684;28;20044;-79
2022/01/13 11:23:51;;;;;;;9.65;3.00;;;;;;;;;;5038405;28;20059;-81
2022/01/13 11:26:20;;;;;;;9.20;2.47;;;;;;;;;;5041047;28;20064;-78
2022/01/13 11:28:48;;;;;;;10.90;2.92;;;;;;;;;;5056862;28;20049;-74
2022/01/13 11:31:14;;;;;;;7.72;2.60;;;;;;;;;;5051902;28;20105;-81
2022/01/13 11:33:40;;;;;;;10.10;2.97;;;;;;;;;;5052060;28;20106;-80
2022/01/13 11:36:08;;;;;;;9.02;3.45;;;;;;;;;;5054821;28;20084;-72
2022/01/13 11:38:35;;;;;;;6.70;2.20;;;;;;;;;;5052183;28;20056;-77
2022/01/13 11:41:06;;;;;;;9.57;2.38;;;;;;;;;;5052232;28;20441;-78
2022/01/13 11:43:34;;;;;;;8.68;2.22;;;;;;;;;;5047042;28;20515;-81
2022/01/13 11:46:15;;;;;;;9.18;2.63;;;;;;;;;;5033956;28;20435;-73
2022/01/13 11:49:07;;;;;;;9.20;2.38;;;;;;;;;;5051305;28;20062;-73
2022/01/13 11:51:58;;;;;;;9.43;2.58;;;;;;;;;;5053925;28;20049;-77
2022/01/13 11:54:43;;;;;;;11.85;2.53;;;;;;;;;;5048614;28;20101;-78
2022/01/13 11:57:22;;;;;;;10.50;2.17;;;;;;;;;;5049954;28;20083;-78
2022/01/13 12:00:00;;;;;;;8.73;2.45;;;;;;;;;;5052123;28;20052;-78
2022/01/13 12:02:32;;;;;;;9.77;2.40;;;;;;;;;;5051205;28;20405;-76
2022/01/13 12:05:14;;;;;;;9.38;2.50;;;;;;;;;;5052268;28;20060;-71
2022/01/13 12:07:45;;;;;;;6.80;2.40;;;;;;;;;;5051766;28;20796;-79
2022/01/13 12:10:37;;;;;;;6.95;2.17;;;;;;;;;;5051811;28;20048;-75
2022/01/13 12:13:28;;;;;;;9.32;3.90;;;;;;;;;;5032987;28;20078;-71
2022/01/13 12:16:01;;;;;;;6.55;2.45;;;;;;;;;;5053295;28;20048;-75
2022/01/13 12:18:59;;;;;;;10.23;2.80;;;;;;;;;;5053839;28;20044;-76
2022/01/13 12:21:37;;;;;;;5.65;2.22;;;;;;;;;;5035358;28;20585;-74
2022/01/13 12:24:07;;;;;;;7.95;2.90;;;;;;;;;;5049661;28;20048;-77
2022/01/13 12:26:33;;;;;;;10.40;2.90;;;;;;;;;;5061019;28;20585;-80
2022/01/13 12:29:23;;;;;;;4.45;2.25;;;;;;;;;;5051941;28;20281;-75
2022/01/13 12:31:55;;;;;;;5.75;2.00;;;;;;;;;;5052856;28;20059;-79
2022/01/13 12:34:33;;;;;;;10.95;3.25;;;;;;;;;;5051756;28;20599;-75
2022/01/13 12:36:59;;;;;;;6.90;2.20;;;;;;;;;;5052539;28;20063;-77
2022/01/13 12:39:26;;;;;;;6.65;2.45;;;;;;;;;;5050008;28;20425;-74
2022/01/13 12:41:59;;;;;;;7.85;2.20;;;;;;;;;;5051227;28;20052;-80
2022/01/13 12:47:13;;;;;;;10.60;2.58;;;;;;;;;;5050606;28;20060;-80
2022/01/13 12:49:40;;;;;;;7.35;2.10;;;;;;;;;;5031170;28;20060;-81
2022/01/13 12:52:07;;;;;;;7.43;2.10;;;;;;;;;;5050156;28;20051;-75
2022/01/13 12:54:34;;;;;;;5.85;2.15;;;;;;;;;;5048577;28;20059;-79
2022/01/13 12:57:06;;;;;;;8.45;2.38;;;;;;;;;;5049428;28;20513;-83
2022/01/13 12:59:35;;;;;;;6.15;1.98;;;;;;;;;;5050463;28;20056;-75
2022/01/13 13:02:01;;;;;;;5.55;1.92;;;;;;;;;;5049570;28;20095;-80
2022/01/13 13:04:30;;;;;;;11.65;2.40;;;;;;;;;;5048020;28;20048;-74
2022/01/13 13:06:57;;;;;;;11.00;2.38;;;;;;;;;;5050145;28;20126;-70
2022/01/13 13:09:26;;;;;;;7.45;2.15;;;;;;;;;;5053102;28;20060;-70
2022/01/13 13:11:57;;;;;;;10.25;2.28;;;;;;;;;;5051037;28;20048;-78
2022/01/13 13:17:40;;;;;;;8.20;2.28;;;;;;;;;;5047189;28;20084;-80
2022/01/13 13:20:23;;;;;;;9.65;2.30;;;;;;;;;;5051014;28;20598;-76
2022/01/13 13:22:51;;;;;;;7.75;2.50;;;;;;;;;;5048743;28;20175;-79
2022/01/13 13:25:39;;;;;;;6.63;2.35;;;;;;;;;;5051012;28;20049;-77
2022/01/13 13:28:36;;;;;;;6.15;2.05;;;;;;;;;;5051353;28;20588;-82
2022/01/13 13:31:16;;;;;;;7.63;2.10;;;;;;;;;;5049369;28;20151;-78
2022/01/13 13:33:48;;;;;;;5.93;2.13;;;;;;;;;;5047591;28;20068;-85
2022/01/13 13:36:18;;;;;;;5.15;1.95;;;;;;;;;;5051005;28;20045;-83
2022/01/13 13:38:50;;;;;;;13.07;3.00;;;;;;;;;;5051511;28;20054;-77
2022/01/13 13:41:18;;;;;;;9.18;2.05;;;;;;;;;;5052896;28;20049;-80
2022/01/13 13:43:45;;;;;;;7.32;2.30;;;;;;;;;;5048108;28;20142;-79
2022/01/13 13:46:14;;;;;;;5.53;2.20;;;;;;;;;;5049244;28;20285;-81
2022/01/13 13:48:47;;;;;;;9.73;2.58;;;;;;;;;;5052403;28;20056;-76
2022/01/13 13:51:19;;;;;;;6.57;1.95;;;;;;;;;;5051079;28;20060;-77
2022/01/13 13:54:08;;;;;;;3.55;1.90;;;;;;;;;;5047538;28;20382;-79
2022/01/13 13:57:00;;;;;;;7.55;2.22;;;;;;;;;;5053241;28;20730;-79
2022/01/13 13:59:41;;;;;;;7.22;2.20;;;;;;;;;;5053686;28;20059;-72
2022/01/13 14:02:11;;;;;;;8.25;3.05;;;;;;;;;;5053191;28;20384;-82
2022/01/13 14:04:44;;;;;;;8.05;2.20;;;;;;;;;;5052105;28;20261;-72
2022/01/13 14:07:28;;;;;;;6.47;2.40;;;;;;;;;;5053430;28;20054;-80
2022/01/13 14:10:03;;;;;;;6.47;2.22;;;;;;;;;;5051011;28;20060;-76
2022/01/13 14:12:37;;;;;;;8.13;2.40;;;;;;;;;;5053213;28;20072;-75
2022/01/13 14:15:41;;;;;;;7.40;1.98;;;;;;;;;;5051809;28;20144;-79
2022/01/13 14:18:07;;;;;;;7.75;2.30;;;;;;;;;;5036645;28;20149;-80
2022/01/13 14:20:36;;;;;;;7.45;2.13;;;;;;;;;;5036007;28;20553;-81
2022/01/13 14:23:04;;;;;;;6.43;1.90;;;;;;;;;;5052092;28;20053;-74
2022/01/13 14:25:39;;;;;;;6.00;2.42;;;;;;;;;;5051928;28;20145;-72
2022/01/13 14:28:11;;;;;;;9.00;2.17;;;;;;;;;;5052695;28;20383;-78
2022/01/13 14:30:42;;;;;;;10.52;2.13;;;;;;;;;;5052054;28;20612;-82
2022/01/13 14:33:29;;;;;;;7.90;2.00;;;;;;;;;;5033087;28;20049;-82
2022/01/13 14:36:06;;;;;;;6.05;2.03;;;;;;;;;;5036573;28;20571;-75
2022/01/13 14:38:55;;;;;;;7.22;1.95;;;;;;;;;;5051804;28;20553;-80
2022/01/13 14:41:24;;;;;;;8.23;2.22;;;;;;;;;;5053968;28;20092;-74
2022/01/13 14:44:06;;;;;;;4.75;1.85;;;;;;;;;;5052770;28;20063;-77
2022/01/13 14:46:38;;;;;;;6.25;2.00;;;;;;;;;;5054297;28;20042;-76
2022/01/13 14:49:06;;;;;;;8.40;2.10;;;;;;;;;;5052480;28;20063;-71
2022/01/13 14:51:33;;;;;;;9.57;1.75;;;;;;;;;;5053674;28;20056;-72
2022/01/13 14:54:01;;;;;;;5.15;2.00;;;;;;;;;;5051789;28;20514;-74
2022/01/13 14:56:28;;;;;;;7.13;2.00;;;;;;;;;;5052767;28;20048;-74
2022/01/13 14:58:54;;;;;;;8.05;3.13;;;;;;;;;;5057627;28;21160;-78
2022/01/13 15:01:21;;;;;;;8.65;3.00;;;;;;;;;;5059312;28;20040;-76
2022/01/13 15:03:48;;;;;;;11.77;3.75;;;;;;;;;;5050108;28;20440;-82
2022/01/13 15:06:15;;;;;;;4.75;2.05;;;;;;;;;;5052171;28;20079;-72
2022/01/13 15:08:42;;;;;;;5.63;2.03;;;;;;;;;;5055887;28;20063;-75
2022/01/13 15:11:08;;;;;;;9.10;2.60;;;;;;;;;;5054576;28;20083;-75
2022/01/13 15:13:35;;;;;;;4.05;2.00;;;;;;;;;;5048701;28;20655;-71
2022/01/13 15:16:02;;;;;;;9.25;2.78;;;;;;;;;;5073377;28;20059;-69
2022/01/13 15:18:30;;;;;;;5.53;2.20;;;;;;;;;;5065926;28;20113;-75
2022/01/13 15:20:59;;;;;;;7.10;2.05;;;;;;;;;;5060465;28;20473;-70
2022/01/13 15:23:29;;;;;;;5.78;2.35;;;;;;;;;;5061860;28;20045;-71
2022/01/13 15:25:56;;;;;;;8.10;2.30;;;;;;;;;;5056961;28;20044;-71
2022/01/13 15:28:23;;;;;;;8.88;2.40;;;;;;;;;;5064202;28;20049;-79
2022/01/13 15:30:50;;;;;;;7.47;2.65;;;;;;;;;;5054918;28;20080;-78
2022/01/13 15:33:16;;;;;;;8.02;2.97;;;;;;;;;;5054145;28;20082;-79
2022/01/13 15:35:47;;;;;;;8.48;2.38;;;;;;;;;;5037157;28;21258;-77